sensor_id;sensor_type;location;lat;lon;timestamp;pressure;altitude;pressure_sealevel;temperature;humidity
63096;BME280;49184;55.596;37.770;2022-08-19T00:05:43;100160.91;;;21.11;53.15
63096;BME280;49184;55.596;37.770;2022-08-19T00:10:47;100182.97;;;21.20;53.47
63096;BME280;49184;55.596;37.770;2022-08-19T00:13:15;100196.56;;;21.25;53.71
63096;BME280;49184;55.596;37.770;2022-08-19T00:18:35;100229.06;;;21.37;53.95
63096;BME280;49184;55.596;37.770;2022-08-19T00:21:02;100161.72;;;20.93;53.60
63096;BME280;49184;55.596;37.770;2022-08-19T00:23:29;100165.00;;;20.98;53.71
63096;BME280;49184;55.596;37.770;2022-08-19T00:25:55;100204.69;;;21.15;54.06
63096;BME280;49184;55.596;37.770;2022-08-19T00:36:11;100208.63;;;21.14;54.22
63096;BME280;49184;55.596;37.770;2022-08-19T00:39:02;100237.22;;;21.30;54.14
63096;BME280;49184;55.596;37.770;2022-08-19T00:41:30;100197.91;;;20.96;53.98
63096;BME280;49184;55.596;37.770;2022-08-19T00:46:38;100186.91;;;20.84;53.54
63096;BME280;49184;55.596;37.770;2022-08-19T00:49:34;100211.00;;;20.96;54.32
63096;BME280;49184;55.596;37.770;2022-08-19T00:52:07;100205.72;;;20.91;53.96
63096;BME280;49184;55.596;37.770;2022-08-19T00:57:09;100259.94;;;21.16;54.13
63096;BME280;49184;55.596;37.770;2022-08-19T01:00:16;100233.97;;;20.93;54.02
63096;BME280;49184;55.596;37.770;2022-08-19T01:02:43;100278.88;;;21.10;54.01
63096;BME280;49184;55.596;37.770;2022-08-19T01:05:12;100269.09;;;21.01;54.79
63096;BME280;49184;55.596;37.770;2022-08-19T01:08:07;100211.94;;;20.68;54.14
63096;BME280;49184;55.596;37.770;2022-08-19T01:15:57;100243.84;;;20.74;53.80
63096;BME280;49184;55.596;37.770;2022-08-19T01:20:56;100209.22;;;20.56;53.86
63096;BME280;49184;55.596;37.770;2022-08-19T01:23:30;100218.03;;;20.58;54.05
63096;BME280;49184;55.596;37.770;2022-08-19T01:34:31;100222.22;;;20.52;53.59
63096;BME280;49184;55.596;37.770;2022-08-19T01:39:36;100231.66;;;20.63;53.90
63096;BME280;49184;55.596;37.770;2022-08-19T01:42:03;100202.13;;;20.42;53.71
63096;BME280;49184;55.596;37.770;2022-08-19T01:44:40;100222.94;;;20.64;53.26
63096;BME280;49184;55.596;37.770;2022-08-19T01:47:07;100190.16;;;20.54;53.38
63096;BME280;49184;55.596;37.770;2022-08-19T01:50:11;100237.03;;;20.72;53.99
63096;BME280;49184;55.596;37.770;2022-08-19T01:52:39;100199.09;;;20.48;53.42
63096;BME280;49184;55.596;37.770;2022-08-19T01:55:19;100163.31;;;20.14;53.25
63096;BME280;49184;55.596;37.770;2022-08-19T01:57:58;100257.09;;;20.65;54.36
63096;BME280;49184;55.596;37.770;2022-08-19T02:00:28;100241.72;;;20.39;54.50
63096;BME280;49184;55.596;37.770;2022-08-19T02:06:19;100265.38;;;20.49;54.63
63096;BME280;49184;55.596;37.770;2022-08-19T02:08:51;100273.41;;;20.51;54.31
63096;BME280;49184;55.596;37.770;2022-08-19T02:11:21;100204.31;;;20.05;54.27
63096;BME280;49184;55.596;37.770;2022-08-19T02:13:47;100239.75;;;20.24;54.40
63096;BME280;49184;55.596;37.770;2022-08-19T02:22:08;100236.31;;;20.15;54.26
63096;BME280;49184;55.596;37.770;2022-08-19T02:24:50;100210.47;;;19.99;54.69
63096;BME280;49184;55.596;37.770;2022-08-19T02:29:49;100283.56;;;20.31;55.26
63096;BME280;49184;55.596;37.770;2022-08-19T02:32:19;100239.41;;;19.98;54.96
63096;BME280;49184;55.596;37.770;2022-08-19T02:46:49;100220.53;;;19.75;54.70
63096;BME280;49184;55.596;37.770;2022-08-19T02:51:59;100255.59;;;19.95;55.04
63096;BME280;49184;55.596;37.770;2022-08-19T02:54:26;100297.75;;;20.13;55.64
63096;BME280;49184;55.596;37.770;2022-08-19T02:57:03;100257.50;;;19.79;55.81
63096;BME280;49184;55.596;37.770;2022-08-19T03:03:00;100273.13;;;19.84;56.25
63096;BME280;49184;55.596;37.770;2022-08-19T03:10:42;100296.53;;;19.99;56.09
63096;BME280;49184;55.596;37.770;2022-08-19T03:13:15;100268.41;;;19.72;56.18
63096;BME280;49184;55.596;37.770;2022-08-19T03:18:14;100232.59;;;19.55;56.39
63096;BME280;49184;55.596;37.770;2022-08-19T03:20:49;100271.84;;;19.81;56.17
63096;BME280;49184;55.596;37.770;2022-08-19T03:23:33;100255.91;;;19.78;56.24
63096;BME280;49184;55.596;37.770;2022-08-19T03:26:04;100298.97;;;20.00;56.08
63096;BME280;49184;55.596;37.770;2022-08-19T03:31:06;100294.50;;;20.11;55.71
63096;BME280;49184;55.596;37.770;2022-08-19T03:36:22;100291.50;;;20.16;55.90
63096;BME280;49184;55.596;37.770;2022-08-19T03:39:05;100254.78;;;19.95;56.29
63096;BME280;49184;55.596;37.770;2022-08-19T03:44:56;100241.06;;;19.86;55.87
63096;BME280;49184;55.596;37.770;2022-08-19T03:50:02;100247.31;;;19.83;56.99
63096;BME280;49184;55.596;37.770;2022-08-19T03:52:41;100281.44;;;20.12;56.52
63096;BME280;49184;55.596;37.770;2022-08-19T03:55:08;100295.97;;;20.21;56.77
63096;BME280;49184;55.596;37.770;2022-08-19T03:57:46;100245.91;;;19.89;56.17
63096;BME280;49184;55.596;37.770;2022-08-19T04:02:55;100254.88;;;19.99;56.27
63096;BME280;49184;55.596;37.770;2022-08-19T04:05:27;100236.16;;;19.95;56.43
63096;BME280;49184;55.596;37.770;2022-08-19T04:08:04;100246.75;;;20.06;55.87
63096;BME280;49184;55.596;37.770;2022-08-19T04:10:42;100234.84;;;20.05;55.95
63096;BME280;49184;55.596;37.770;2022-08-19T04:13:18;100217.09;;;19.94;55.93
63096;BME280;49184;55.596;37.770;2022-08-19T04:15:46;100251.09;;;20.19;55.75
63096;BME280;49184;55.596;37.770;2022-08-19T04:18:13;100261.59;;;20.26;55.66
63096;BME280;49184;55.596;37.770;2022-08-19T04:20:42;100306.69;;;20.63;55.75
63096;BME280;49184;55.596;37.770;2022-08-19T04:23:08;100264.66;;;20.36;55.77
63096;BME280;49184;55.596;37.770;2022-08-19T04:29:29;100262.47;;;20.58;55.43
63096;BME280;49184;55.596;37.770;2022-08-19T04:31:56;100305.41;;;20.92;55.22
63096;BME280;49184;55.596;37.770;2022-08-19T04:34:26;100267.41;;;20.80;54.55
63096;BME280;49184;55.596;37.770;2022-08-19T04:36:54;100317.88;;;21.14;54.53
63096;BME280;49184;55.596;37.770;2022-08-19T04:39:46;100304.06;;;21.02;54.57
63096;BME280;49184;55.596;37.770;2022-08-19T04:42:56;100271.88;;;20.85;55.40
63096;BME280;49184;55.596;37.770;2022-08-19T04:45:36;100291.59;;;20.96;54.76
63096;BME280;49184;55.596;37.770;2022-08-19T04:48:02;100318.16;;;21.09;54.63
63096;BME280;49184;55.596;37.770;2022-08-19T04:50:28;100255.22;;;20.69;54.60
63096;BME280;49184;55.596;37.770;2022-08-19T04:52:58;100257.72;;;20.74;54.35
63096;BME280;49184;55.596;37.770;2022-08-19T04:55:40;100241.84;;;20.59;55.14
63096;BME280;49184;55.596;37.770;2022-08-19T04:58:06;100284.81;;;20.93;54.81
63096;BME280;49184;55.596;37.770;2022-08-19T05:00:38;100285.69;;;20.97;55.00
63096;BME280;49184;55.596;37.770;2022-08-19T05:03:05;100257.44;;;20.79;55.24
63096;BME280;49184;55.596;37.770;2022-08-19T05:05:41;100251.00;;;20.75;55.14
63096;BME280;49184;55.596;37.770;2022-08-19T05:08:07;100307.56;;;21.15;55.73
63096;BME280;49184;55.596;37.770;2022-08-19T05:10:50;100322.19;;;21.27;54.88
63096;BME280;49184;55.596;37.770;2022-08-19T05:13:22;100239.25;;;20.82;55.49
63096;BME280;49184;55.596;37.770;2022-08-19T05:16:26;100315.28;;;21.37;54.80
63096;BME280;49184;55.596;37.770;2022-08-19T05:22:50;100269.41;;;21.31;54.64
63096;BME280;49184;55.596;37.770;2022-08-19T05:25:30;100241.00;;;21.22;54.58
63096;BME280;49184;55.596;37.770;2022-08-19T05:28:21;100327.47;;;21.84;53.65
63096;BME280;49184;55.596;37.770;2022-08-19T05:30:54;100288.28;;;21.73;53.19
63096;BME280;49184;55.596;37.770;2022-08-19T05:33:46;100326.75;;;22.06;53.48
63096;BME280;49184;55.596;37.770;2022-08-19T05:36:46;100327.38;;;22.15;53.18
63096;BME280;49184;55.596;37.770;2022-08-19T05:39:16;100297.00;;;22.10;53.64
63096;BME280;49184;55.596;37.770;2022-08-19T05:41:51;100229.44;;;21.74;52.08
63096;BME280;49184;55.596;37.770;2022-08-19T05:44:44;100320.38;;;22.44;51.86
63096;BME280;49184;55.596;37.770;2022-08-19T05:47:23;100269.75;;;22.19;52.27
63096;BME280;49184;55.596;37.770;2022-08-19T05:49:52;100249.28;;;22.12;51.55
63096;BME280;49184;55.596;37.770;2022-08-19T05:52:34;100284.22;;;22.48;52.73
63096;BME280;49184;55.596;37.770;2022-08-19T05:55:04;100268.00;;;22.54;53.15
63096;BME280;49184;55.596;37.770;2022-08-19T05:57:53;100234.63;;;22.34;51.50
63096;BME280;49184;55.596;37.770;2022-08-19T06:00:20;100267.56;;;22.51;51.31
63096;BME280;49184;55.596;37.770;2022-08-19T06:06:12;100265.34;;;22.61;51.27
63096;BME280;49184;55.596;37.770;2022-08-19T06:08:39;100262.25;;;22.66;51.61
63096;BME280;49184;55.596;37.770;2022-08-19T06:11:21;100256.69;;;22.66;51.67
63096;BME280;49184;55.596;37.770;2022-08-19T06:16:23;100272.22;;;22.90;51.24
63096;BME280;49184;55.596;37.770;2022-08-19T06:18:55;100259.81;;;22.87;51.87
63096;BME280;49184;55.596;37.770;2022-08-19T06:21:34;100268.78;;;22.96;52.38
63096;BME280;49184;55.596;37.770;2022-08-19T06:24:11;100310.19;;;23.21;52.02
63096;BME280;49184;55.596;37.770;2022-08-19T06:26:46;100302.50;;;23.14;50.57
63096;BME280;49184;55.596;37.770;2022-08-19T06:29:15;100328.66;;;23.29;50.48
63096;BME280;49184;55.596;37.770;2022-08-19T06:31:51;100297.56;;;23.04;50.95
63096;BME280;49184;55.596;37.770;2022-08-19T06:34:19;100290.44;;;23.07;51.74
63096;BME280;49184;55.596;37.770;2022-08-19T06:37:01;100271.25;;;23.02;50.39
63096;BME280;49184;55.596;37.770;2022-08-19T06:39:52;100346.03;;;23.68;50.97
63096;BME280;49184;55.596;37.770;2022-08-19T06:45:27;100292.88;;;23.61;49.73
63096;BME280;49184;55.596;37.770;2022-08-19T06:48:03;100306.22;;;23.72;49.42
63096;BME280;49184;55.596;37.770;2022-08-19T06:50:29;100340.06;;;24.00;49.74
63096;BME280;49184;55.596;37.770;2022-08-19T06:53:08;100284.81;;;23.83;50.50
63096;BME280;49184;55.596;37.770;2022-08-19T06:55:36;100238.44;;;23.75;48.94
63096;BME280;49184;55.596;37.770;2022-08-19T06:58:48;100304.94;;;24.33;47.94
63096;BME280;49184;55.596;37.770;2022-08-19T07:05:21;100333.81;;;24.78;47.87
63096;BME280;49184;55.596;37.770;2022-08-19T07:07:51;100264.00;;;24.44;48.07
63096;BME280;49184;55.596;37.770;2022-08-19T07:10:20;100256.78;;;24.43;46.25
63096;BME280;49184;55.596;37.770;2022-08-19T07:12:47;100286.22;;;24.71;47.88
63096;BME280;49184;55.596;37.770;2022-08-19T07:15:18;100329.38;;;25.14;46.74
63096;BME280;49184;55.596;37.770;2022-08-19T07:17:48;100321.34;;;25.13;46.78
63096;BME280;49184;55.596;37.770;2022-08-19T07:20:16;100302.97;;;25.12;45.59
63096;BME280;49184;55.596;37.770;2022-08-19T07:22:43;100330.31;;;25.33;46.56
63096;BME280;49184;55.596;37.770;2022-08-19T07:25:12;100298.88;;;25.02;47.61
63096;BME280;49184;55.596;37.770;2022-08-19T07:27:44;100318.63;;;25.20;45.38
63096;BME280;49184;55.596;37.770;2022-08-19T07:30:10;100327.88;;;25.24;45.30
63096;BME280;49184;55.596;37.770;2022-08-19T07:32:37;100329.47;;;25.25;45.50
63096;BME280;49184;55.596;37.770;2022-08-19T07:35:04;100336.00;;;25.43;45.58
63096;BME280;49184;55.596;37.770;2022-08-19T07:37:31;100315.22;;;25.44;45.62
63096;BME280;49184;55.596;37.770;2022-08-19T07:39:57;100330.06;;;25.55;45.07
63096;BME280;49184;55.596;37.770;2022-08-19T07:42:23;100325.97;;;25.39;44.13
63096;BME280;49184;55.596;37.770;2022-08-19T07:44:49;100323.88;;;25.28;43.96
63096;BME280;49184;55.596;37.770;2022-08-19T07:47:15;100306.78;;;25.41;45.22
63096;BME280;49184;55.596;37.770;2022-08-19T07:49:45;100308.31;;;25.31;44.12
63096;BME280;49184;55.596;37.770;2022-08-19T07:52:15;100290.38;;;25.43;44.12
63096;BME280;49184;55.596;37.770;2022-08-19T07:54:48;100298.75;;;25.36;43.91
63096;BME280;49184;55.596;37.770;2022-08-19T07:57:39;100326.50;;;25.62;44.69
63096;BME280;49184;55.596;37.770;2022-08-19T08:00:09;100308.16;;;25.72;46.04
63096;BME280;49184;55.596;37.770;2022-08-19T08:02:37;100331.47;;;25.83;43.89
63096;BME280;49184;55.596;37.770;2022-08-19T08:05:16;100327.06;;;25.82;44.37
63096;BME280;49184;55.596;37.770;2022-08-19T08:08:05;100327.78;;;25.75;43.81
63096;BME280;49184;55.596;37.770;2022-08-19T08:11:02;100333.72;;;25.60;43.54
63096;BME280;49184;55.596;37.770;2022-08-19T08:13:30;100326.94;;;25.64;44.60
63096;BME280;49184;55.596;37.770;2022-08-19T08:15:56;100328.53;;;25.65;44.12
63096;BME280;49184;55.596;37.770;2022-08-19T08:18:24;100332.16;;;25.69;45.27
63096;BME280;49184;55.596;37.770;2022-08-19T08:23:42;100329.75;;;25.64;42.33
63096;BME280;49184;55.596;37.770;2022-08-19T08:26:20;100331.00;;;25.74;43.33
63096;BME280;49184;55.596;37.770;2022-08-19T08:28:46;100333.06;;;25.81;42.12
63096;BME280;49184;55.596;37.770;2022-08-19T08:31:17;100316.19;;;25.73;40.97
63096;BME280;49184;55.596;37.770;2022-08-19T08:33:45;100302.94;;;25.67;40.18
63096;BME280;49184;55.596;37.770;2022-08-19T08:36:12;100331.38;;;25.76;41.85
63096;BME280;49184;55.596;37.770;2022-08-19T08:38:42;100323.94;;;25.94;43.70
63096;BME280;49184;55.596;37.770;2022-08-19T08:43:47;100330.81;;;26.15;42.27
63096;BME280;49184;55.596;37.770;2022-08-19T08:46:22;100334.44;;;26.19;41.79
63096;BME280;49184;55.596;37.770;2022-08-19T08:49:01;100324.50;;;26.36;42.25
63096;BME280;49184;55.596;37.770;2022-08-19T08:51:36;100347.31;;;26.38;41.41
63096;BME280;49184;55.596;37.770;2022-08-19T08:54:06;100351.41;;;26.58;41.45
63096;BME280;49184;55.596;37.770;2022-08-19T08:56:33;100326.59;;;26.60;42.00
63096;BME280;49184;55.596;37.770;2022-08-19T09:01:27;100331.78;;;26.58;40.94
63096;BME280;49184;55.596;37.770;2022-08-19T09:03:54;100342.22;;;26.65;40.11
63096;BME280;49184;55.596;37.770;2022-08-19T09:09:34;100304.50;;;26.48;40.04
63096;BME280;49184;55.596;37.770;2022-08-19T09:12:06;100318.59;;;26.77;40.79
63096;BME280;49184;55.596;37.770;2022-08-19T09:14:55;100347.03;;;26.75;38.74
63096;BME280;49184;55.596;37.770;2022-08-19T09:17:25;100292.06;;;26.42;39.58
63096;BME280;49184;55.596;37.770;2022-08-19T09:20:20;100335.78;;;26.50;38.09
63096;BME280;49184;55.596;37.770;2022-08-19T09:22:47;100345.41;;;26.49;38.36
63096;BME280;49184;55.596;37.770;2022-08-19T09:25:19;100334.97;;;26.50;38.70
63096;BME280;49184;55.596;37.770;2022-08-19T09:27:52;100344.22;;;26.61;36.60
63096;BME280;49184;55.596;37.770;2022-08-19T09:30:27;100360.66;;;26.69;37.23
63096;BME280;49184;55.596;37.770;2022-08-19T09:32:54;100316.56;;;26.59;36.46
63096;BME280;49184;55.596;37.770;2022-08-19T09:35:22;100345.44;;;26.78;37.46
63096;BME280;49184;55.596;37.770;2022-08-19T09:37:50;100323.78;;;26.64;36.65
63096;BME280;49184;55.596;37.770;2022-08-19T09:40:19;100335.44;;;26.80;36.13
63096;BME280;49184;55.596;37.770;2022-08-19T09:42:46;100305.75;;;26.72;35.92
63096;BME280;49184;55.596;37.770;2022-08-19T09:45:17;100331.41;;;26.92;35.00
63096;BME280;49184;55.596;37.770;2022-08-19T09:47:43;100363.94;;;27.18;34.15
63096;BME280;49184;55.596;37.770;2022-08-19T09:50:11;100349.88;;;27.11;34.52
63096;BME280;49184;55.596;37.770;2022-08-19T09:52:37;100364.78;;;27.22;34.46
63096;BME280;49184;55.596;37.770;2022-08-19T09:55:05;100350.72;;;27.29;37.74
63096;BME280;49184;55.596;37.770;2022-08-19T09:57:32;100364.34;;;27.24;33.21
63096;BME280;49184;55.596;37.770;2022-08-19T09:59:58;100372.38;;;27.18;31.30
63096;BME280;49184;55.596;37.770;2022-08-19T10:02:24;100364.78;;;27.19;31.57
63096;BME280;49184;55.596;37.770;2022-08-19T10:04:50;100371.16;;;27.12;29.88
63096;BME280;49184;55.596;37.770;2022-08-19T10:07:36;100357.09;;;27.05;31.92
63096;BME280;49184;55.596;37.770;2022-08-19T10:10:06;100352.69;;;27.00;30.94
63096;BME280;49184;55.596;37.770;2022-08-19T10:12:33;100374.78;;;27.23;31.09
63096;BME280;49184;55.596;37.770;2022-08-19T10:15:00;100353.13;;;27.13;29.88
63096;BME280;49184;55.596;37.770;2022-08-19T10:17:28;100367.97;;;27.31;32.58
63096;BME280;49184;55.596;37.770;2022-08-19T10:19:54;100371.16;;;27.44;32.90
63096;BME280;49184;55.596;37.770;2022-08-19T10:22:21;100353.91;;;27.31;32.00
63096;BME280;49184;55.596;37.770;2022-08-19T10:24:47;100367.56;;;27.29;31.39
63096;BME280;49184;55.596;37.770;2022-08-19T10:27:15;100378.00;;;27.29;31.35
63096;BME280;49184;55.596;37.770;2022-08-19T10:29:43;100371.97;;;27.34;30.13
63096;BME280;49184;55.596;37.770;2022-08-19T10:32:10;100367.16;;;27.34;30.10
63096;BME280;49184;55.596;37.770;2022-08-19T10:34:37;100366.34;;;27.48;30.61
63096;BME280;49184;55.596;37.770;2022-08-19T10:37:05;100384.00;;;27.67;34.32
63096;BME280;49184;55.596;37.770;2022-08-19T10:39:34;100352.69;;;27.57;29.89
63096;BME280;49184;55.596;37.770;2022-08-19T10:42:08;100373.97;;;27.66;30.37
63096;BME280;49184;55.596;37.770;2022-08-19T10:44:38;100382.38;;;27.83;29.65
63096;BME280;49184;55.596;37.770;2022-08-19T10:47:05;100368.28;;;27.98;32.03
63096;BME280;49184;55.596;37.770;2022-08-19T10:49:31;100370.28;;;28.01;29.16
63096;BME280;49184;55.596;37.770;2022-08-19T10:51:58;100359.50;;;27.89;30.18
63096;BME280;49184;55.596;37.770;2022-08-19T10:54:48;100383.97;;;27.81;29.70
63096;BME280;49184;55.596;37.770;2022-08-19T10:57:33;100354.66;;;27.75;30.90
63096;BME280;49184;55.596;37.770;2022-08-19T10:59:59;100371.94;;;27.73;32.86
63096;BME280;49184;55.596;37.770;2022-08-19T11:02:25;100374.38;;;27.78;29.87
63096;BME280;49184;55.596;37.770;2022-08-19T11:04:51;100391.19;;;27.75;30.70
63096;BME280;49184;55.596;37.770;2022-08-19T11:07:22;100386.00;;;27.77;32.25
63096;BME280;49184;55.596;37.770;2022-08-19T11:09:50;100377.56;;;27.66;31.57
63096;BME280;49184;55.596;37.770;2022-08-19T11:12:17;100382.00;;;27.56;30.63
63096;BME280;49184;55.596;37.770;2022-08-19T11:14:43;100372.38;;;27.50;31.35
63096;BME280;49184;55.596;37.770;2022-08-19T11:17:09;100389.19;;;27.68;33.74
63096;BME280;49184;55.596;37.770;2022-08-19T11:19:37;100365.16;;;27.56;31.35
63096;BME280;49184;55.596;37.770;2022-08-19T11:22:07;100360.34;;;27.46;32.25
63096;BME280;49184;55.596;37.770;2022-08-19T11:24:35;100360.34;;;27.43;31.28
63096;BME280;49184;55.596;37.770;2022-08-19T11:27:05;100372.78;;;27.49;32.07
63096;BME280;49184;55.596;37.770;2022-08-19T11:29:33;100363.16;;;27.28;31.42
63096;BME280;49184;55.596;37.770;2022-08-19T11:32:02;100350.34;;;27.16;31.60
63096;BME280;49184;55.596;37.770;2022-08-19T11:34:29;100367.53;;;27.11;31.66
63096;BME280;49184;55.596;37.770;2022-08-19T11:36:56;100357.50;;;27.10;32.74
63096;BME280;49184;55.596;37.770;2022-08-19T11:39:27;100369.56;;;27.18;33.14
63096;BME280;49184;55.596;37.770;2022-08-19T11:41:57;100358.34;;;27.14;31.71
63096;BME280;49184;55.596;37.770;2022-08-19T11:44:26;100362.34;;;27.17;32.58
63096;BME280;49184;55.596;37.770;2022-08-19T11:46:52;100364.78;;;27.26;33.06
63096;BME280;49184;55.596;37.770;2022-08-19T11:49:19;100363.16;;;27.35;33.82
63096;BME280;49184;55.596;37.770;2022-08-19T11:51:47;100361.16;;;27.36;32.61
63096;BME280;49184;55.596;37.770;2022-08-19T11:54:16;100369.16;;;27.45;33.23
63096;BME280;49184;55.596;37.770;2022-08-19T11:56:44;100339.09;;;27.27;32.53
63096;BME280;49184;55.596;37.770;2022-08-19T11:59:11;100352.31;;;27.45;34.37
63096;BME280;49184;55.596;37.770;2022-08-19T12:01:37;100358.34;;;27.32;32.42
63096;BME280;49184;55.596;37.770;2022-08-19T12:04:06;100361.97;;;27.29;33.86
63096;BME280;49184;55.596;37.770;2022-08-19T12:06:33;100358.75;;;27.52;33.23
63096;BME280;49184;55.596;37.770;2022-08-19T12:09:03;100355.91;;;27.63;33.84
63096;BME280;49184;55.596;37.770;2022-08-19T12:11:32;100353.09;;;27.77;34.08
63096;BME280;49184;55.596;37.770;2022-08-19T12:13:58;100329.78;;;27.73;32.86
63096;BME280;49184;55.596;37.770;2022-08-19T12:16:27;100348.66;;;27.87;33.14
63096;BME280;49184;55.596;37.770;2022-08-19T12:18:54;100349.44;;;27.87;32.89
63096;BME280;49184;55.596;37.770;2022-08-19T12:21:25;100317.34;;;27.85;33.92
63096;BME280;49184;55.596;37.770;2022-08-19T12:24:34;100344.63;;;27.84;32.52
63096;BME280;49184;55.596;37.770;2022-08-19T12:27:03;100308.56;;;27.65;32.58
63096;BME280;49184;55.596;37.770;2022-08-19T12:29:30;100310.53;;;27.75;32.92
63096;BME280;49184;55.596;37.770;2022-08-19T12:31:59;100331.78;;;27.91;32.88
63096;BME280;49184;55.596;37.770;2022-08-19T12:34:28;100333.81;;;27.58;33.02
63096;BME280;49184;55.596;37.770;2022-08-19T12:36:58;100335.06;;;27.50;32.78
63096;BME280;49184;55.596;37.770;2022-08-19T12:39:28;100371.16;;;27.76;33.45
63096;BME280;49184;55.596;37.770;2022-08-19T12:41:56;100337.44;;;27.66;33.40
63096;BME280;49184;55.596;37.770;2022-08-19T12:44:48;100362.66;;;28.05;32.68
63096;BME280;49184;55.596;37.770;2022-08-19T12:47:54;100265.63;;;27.50;33.02
63096;BME280;49184;55.596;37.770;2022-08-19T12:50:20;100361.09;;;27.86;32.11
63096;BME280;49184;55.596;37.770;2022-08-19T12:52:53;100325.38;;;27.61;33.76
63096;BME280;49184;55.596;37.770;2022-08-19T12:55:23;100339.47;;;27.65;33.58
63096;BME280;49184;55.596;37.770;2022-08-19T12:57:51;100319.84;;;27.36;33.63
63096;BME280;49184;55.596;37.770;2022-08-19T13:00:20;100327.84;;;27.56;33.15
63096;BME280;49184;55.596;37.770;2022-08-19T13:02:48;100300.94;;;27.51;33.30
63096;BME280;49184;55.596;37.770;2022-08-19T13:05:22;100325.03;;;27.49;34.31
63096;BME280;49184;55.596;37.770;2022-08-19T13:08:01;100338.28;;;27.41;34.38
63096;BME280;49184;55.596;37.770;2022-08-19T13:10:33;100341.50;;;27.39;33.72
63096;BME280;49184;55.596;37.770;2022-08-19T13:13:04;100360.72;;;27.45;34.71
63096;BME280;49184;55.596;37.770;2022-08-19T13:15:36;100323.06;;;27.21;34.16
63096;BME280;49184;55.596;37.770;2022-08-19T13:18:06;100339.50;;;27.22;32.73
63096;BME280;49184;55.596;37.770;2022-08-19T13:20:40;100317.00;;;27.08;34.34
63096;BME280;49184;55.596;37.770;2022-08-19T13:23:07;100335.06;;;26.96;35.28
63096;BME280;49184;55.596;37.770;2022-08-19T13:25:35;100353.91;;;26.99;34.37
63096;BME280;49184;55.596;37.770;2022-08-19T13:28:04;100358.72;;;27.02;34.88
63096;BME280;49184;55.596;37.770;2022-08-19T13:30:32;100353.06;;;26.91;34.82
63096;BME280;49184;55.596;37.770;2022-08-19T13:36:38;100331.41;;;26.92;34.89
63096;BME280;49184;55.596;37.770;2022-08-19T13:39:06;100394.06;;;27.32;34.60
63096;BME280;49184;55.596;37.770;2022-08-19T13:41:33;100331.47;;;27.13;34.23
63096;BME280;49184;55.596;37.770;2022-08-19T13:44:02;100379.59;;;27.51;35.75
63096;BME280;49184;55.596;37.770;2022-08-19T13:46:28;100385.63;;;27.50;34.56
63096;BME280;49184;55.596;37.770;2022-08-19T13:49:11;100380.03;;;27.32;33.92
63096;BME280;49184;55.596;37.770;2022-08-19T13:51:39;100381.63;;;27.22;34.52
63096;BME280;49184;55.596;37.770;2022-08-19T13:54:07;100355.91;;;27.06;34.13
63096;BME280;49184;55.596;37.770;2022-08-19T13:56:35;100399.25;;;27.26;34.56
63096;BME280;49184;55.596;37.770;2022-08-19T13:59:10;100383.97;;;27.09;35.34
63096;BME280;49184;55.596;37.770;2022-08-19T14:01:45;100405.22;;;26.96;35.24
63096;BME280;49184;55.596;37.770;2022-08-19T14:04:11;100357.44;;;26.57;35.75
63096;BME280;49184;55.596;37.770;2022-08-19T14:06:38;100394.34;;;26.69;35.72
63096;BME280;49184;55.596;37.770;2022-08-19T14:09:04;100386.25;;;26.54;35.77
63096;BME280;49184;55.596;37.770;2022-08-19T14:11:39;100403.13;;;26.64;36.03
63096;BME280;49184;55.596;37.770;2022-08-19T14:17:09;100357.66;;;26.16;36.66
63096;BME280;49184;55.596;37.770;2022-08-19T14:19:35;100372.47;;;26.16;36.25
63096;BME280;49184;55.596;37.770;2022-08-19T14:22:02;100356.41;;;26.06;36.02
63096;BME280;49184;55.596;37.770;2022-08-19T14:24:31;100386.13;;;26.32;36.10
63096;BME280;49184;55.596;37.770;2022-08-19T14:26:58;100413.41;;;26.39;36.04
63096;BME280;49184;55.596;37.770;2022-08-19T14:29:54;100376.84;;;26.10;36.08
63096;BME280;49184;55.596;37.770;2022-08-19T14:32:23;100376.84;;;26.07;36.53
63096;BME280;49184;55.596;37.770;2022-08-19T14:35:05;100398.84;;;26.08;35.99
63096;BME280;49184;55.596;37.770;2022-08-19T14:37:34;100384.34;;;25.92;37.18
63096;BME280;49184;55.596;37.770;2022-08-19T14:40:28;100407.66;;;26.07;36.36
63096;BME280;49184;55.596;37.770;2022-08-19T14:45:44;100414.03;;;26.04;36.77
63096;BME280;49184;55.596;37.770;2022-08-19T14:48:10;100412.41;;;26.02;36.55
63096;BME280;49184;55.596;37.770;2022-08-19T14:50:39;100413.22;;;25.99;37.25
63096;BME280;49184;55.596;37.770;2022-08-19T14:56:27;100394.72;;;25.84;38.41
63096;BME280;49184;55.596;37.770;2022-08-19T14:58:53;100399.09;;;25.82;37.83
63096;BME280;49184;55.596;37.770;2022-08-19T15:01:25;100407.97;;;25.91;38.84
63096;BME280;49184;55.596;37.770;2022-08-19T15:03:52;100401.84;;;25.78;38.33
63096;BME280;49184;55.596;37.770;2022-08-19T15:06:25;100407.50;;;25.82;39.19
63096;BME280;49184;55.596;37.770;2022-08-19T15:09:04;100406.19;;;25.72;38.92
63096;BME280;49184;55.596;37.770;2022-08-19T15:11:31;100412.22;;;25.74;39.07
63096;BME280;49184;55.596;37.770;2022-08-19T15:13:59;100395.69;;;25.54;39.35
63096;BME280;49184;55.596;37.770;2022-08-19T15:19:30;100418.16;;;25.65;39.08
63096;BME280;49184;55.596;37.770;2022-08-19T15:21:58;100405.28;;;25.53;38.95
63096;BME280;49184;55.596;37.770;2022-08-19T15:24:27;100407.66;;;25.55;38.50
63096;BME280;49184;55.596;37.770;2022-08-19T15:26:54;100387.56;;;25.42;39.20